Carnesville, Georgia
Current Conditions -  °F | °C
As of 9:15 AM on Sunday 25 Jan 2015 (Local Time) from KTOC Reporting Station
Clear Clear  
Wind Chill:   Ceiling: Unl
Heat Index:   Visibility: 10mi
Dew Point: -1°   Wind: 5mph
Humidity: 70%   Direction: 230°SW
Pressure: 29.93"   Gusts: NA
Location:  34.37°N, 83.24°W
Report Text: KTOC 251415Z AUTO 23004KT 10SM CLR 04/M01 A2993 RMK AO2 T00421008
Loading
Personal Weather Stations






























Interactive Weather Map New forecast layout! Learn more

10-Day Weather Forecast

Advertisements
Track Severe Weather on mobile